sensor_id;sensor_type;location;lat;lon;timestamp;pressure;altitude;pressure_sealevel;temperature;humidity
62510;BME280;48558;48.242;11.654;2023-04-09T00:01:06;96878.28;;;4.15;100.00
62510;BME280;48558;48.242;11.654;2023-04-09T00:05:19;96878.22;;;4.22;100.00
62510;BME280;48558;48.242;11.654;2023-04-09T00:09:32;96866.78;;;4.31;100.00
62510;BME280;48558;48.242;11.654;2023-04-09T00:13:44;96864.97;;;4.17;100.00
62510;BME280;48558;48.242;11.654;2023-04-09T00:17:58;96862.03;;;4.01;100.00
62510;BME280;48558;48.242;11.654;2023-04-09T00:22:16;96866.69;;;4.04;100.00
62510;BME280;48558;48.242;11.654;2023-04-09T00:26:30;96858.50;;;4.04;100.00
62510;BME280;48558;48.242;11.654;2023-04-09T00:30:52;96870.56;;;4.07;100.00
62510;BME280;48558;48.242;11.654;2023-04-09T00:35:05;96866.28;;;4.06;100.00
62510;BME280;48558;48.242;11.654;2023-04-09T00:39:17;96866.69;;;4.04;100.00
62510;BME280;48558;48.242;11.654;2023-04-09T00:43:30;96857.34;;;3.98;100.00
62510;BME280;48558;48.242;11.654;2023-04-09T00:47:42;96854.19;;;4.03;100.00
62510;BME280;48558;48.242;11.654;2023-04-09T00:51:57;96863.19;;;4.00;100.00
62510;BME280;48558;48.242;11.654;2023-04-09T00:56:10;96857.34;;;3.98;100.00
62510;BME280;48558;48.242;11.654;2023-04-09T01:00:23;96870.63;;;4.00;100.00
62510;BME280;48558;48.242;11.654;2023-04-09T01:04:40;96857.66;;;4.07;100.00
62510;BME280;48558;48.242;11.654;2023-04-09T01:09:11;96867.50;;;4.01;100.00
62510;BME280;48558;48.242;11.654;2023-04-09T01:13:47;96854.25;;;4.00;100.00
62510;BME280;48558;48.242;11.654;2023-04-09T01:18:28;96859.28;;;4.01;100.00
62510;BME280;48558;48.242;11.654;2023-04-09T01:27:08;96848.72;;;4.03;100.00
62510;BME280;48558;48.242;11.654;2023-04-09T01:31:27;96854.25;;;3.96;100.00
62510;BME280;48558;48.242;11.654;2023-04-09T01:35:42;96850.00;;;3.92;100.00
62510;BME280;48558;48.242;11.654;2023-04-09T01:39:58;96853.94;;;3.91;100.00
62510;BME280;48558;48.242;11.654;2023-04-09T01:44:11;96848.41;;;3.94;100.00
62510;BME280;48558;48.242;11.654;2023-04-09T01:48:24;96855.09;;;3.90;100.00
62510;BME280;48558;48.242;11.654;2023-04-09T01:52:37;96859.34;;;3.94;100.00
62510;BME280;48558;48.242;11.654;2023-04-09T01:56:50;96859.06;;;3.85;100.00
62510;BME280;48558;48.242;11.654;2023-04-09T02:01:11;96860.56;;;3.90;100.00
62510;BME280;48558;48.242;11.654;2023-04-09T02:05:30;96867.19;;;3.92;100.00
62510;BME280;48558;48.242;11.654;2023-04-09T02:09:48;96861.78;;;3.89;100.00
62510;BME280;48558;48.242;11.654;2023-04-09T02:14:02;96866.03;;;3.90;100.00
62510;BME280;48558;48.242;11.654;2023-04-09T02:18:27;96856.63;;;3.94;100.00
62510;BME280;48558;48.242;11.654;2023-04-09T02:22:50;96841.13;;;3.81;100.00
62510;BME280;48558;48.242;11.654;2023-04-09T02:27:06;96845.38;;;3.85;100.00
62510;BME280;48558;48.242;11.654;2023-04-09T02:31:19;96849.31;;;3.84;100.00
62510;BME280;48558;48.242;11.654;2023-04-09T02:35:32;96841.19;;;3.77;100.00
62510;BME280;48558;48.242;11.654;2023-04-09T02:39:54;96843.91;;;3.77;100.00
62510;BME280;48558;48.242;11.654;2023-04-09T02:44:07;96848.56;;;3.80;100.00
62510;BME280;48558;48.242;11.654;2023-04-09T02:48:19;96855.63;;;3.78;100.00
62510;BME280;48558;48.242;11.654;2023-04-09T02:52:32;96842.75;;;3.75;100.00
62510;BME280;48558;48.242;11.654;2023-04-09T02:56:44;96842.75;;;3.75;100.00
62510;BME280;48558;48.242;11.654;2023-04-09T03:00:57;96843.31;;;3.55;100.00
62510;BME280;48558;48.242;11.654;2023-04-09T03:05:09;96834.69;;;3.60;100.00
62510;BME280;48558;48.242;11.654;2023-04-09T03:09:22;96840.91;;;3.64;100.00
62510;BME280;48558;48.242;11.654;2023-04-09T03:13:34;96847.56;;;3.60;100.00
62510;BME280;48558;48.242;11.654;2023-04-09T03:17:46;96835.63;;;3.43;100.00
62510;BME280;48558;48.242;11.654;2023-04-09T03:21:59;96850.97;;;3.27;100.00
62510;BME280;48558;48.242;11.654;2023-04-09T03:26:20;96841.41;;;2.98;100.00
62510;BME280;48558;48.242;11.654;2023-04-09T03:30:42;96852.78;;;2.85;100.00
62510;BME280;48558;48.242;11.654;2023-04-09T03:34:55;96850.91;;;2.75;100.00
62510;BME280;48558;48.242;11.654;2023-04-09T03:39:07;96854.00;;;2.84;100.00
62510;BME280;48558;48.242;11.654;2023-04-09T03:43:21;96848.91;;;2.86;100.00
62510;BME280;48558;48.242;11.654;2023-04-09T03:47:37;96849.63;;;2.98;100.00
62510;BME280;48558;48.242;11.654;2023-04-09T03:51:49;96862.03;;;3.06;100.00
62510;BME280;48558;48.242;11.654;2023-04-09T03:56:02;96867.41;;;3.23;100.00
62510;BME280;48558;48.242;11.654;2023-04-09T04:00:14;96859.66;;;3.08;100.00
62510;BME280;48558;48.242;11.654;2023-04-09T04:04:27;96856.09;;;3.18;100.00
62510;BME280;48558;48.242;11.654;2023-04-09T04:08:40;96850.69;;;3.11;100.00
62510;BME280;48558;48.242;11.654;2023-04-09T04:12:52;96867.41;;;3.20;100.00
62510;BME280;48558;48.242;11.654;2023-04-09T04:17:05;96857.28;;;3.17;100.00
62510;BME280;48558;48.242;11.654;2023-04-09T04:21:17;96853.00;;;3.16;100.00
62510;BME280;48558;48.242;11.654;2023-04-09T04:25:34;96862.34;;;3.15;100.00
62510;BME280;48558;48.242;11.654;2023-04-09T04:29:57;96871.75;;;3.14;100.00
62510;BME280;48558;48.242;11.654;2023-04-09T04:34:11;96868.59;;;3.15;100.00
62510;BME280;48558;48.242;11.654;2023-04-09T04:38:33;96866.31;;;3.07;100.00
62510;BME280;48558;48.242;11.654;2023-04-09T04:42:46;96863.59;;;3.07;100.00
62510;BME280;48558;48.242;11.654;2023-04-09T04:46:58;96863.19;;;3.12;100.00
62510;BME280;48558;48.242;11.654;2023-04-09T04:51:21;96862.84;;;3.03;100.00
62510;BME280;48558;48.242;11.654;2023-04-09T04:55:37;96867.47;;;3.09;100.00
62510;BME280;48558;48.242;11.654;2023-04-09T04:59:52;96879.22;;;2.99;100.00
62510;BME280;48558;48.242;11.654;2023-04-09T05:04:05;96884.81;;;2.78;100.00
62510;BME280;48558;48.242;11.654;2023-04-09T05:08:18;96879.78;;;2.69;100.00
62510;BME280;48558;48.242;11.654;2023-04-09T05:12:31;96887.66;;;2.53;100.00
62510;BME280;48558;48.242;11.654;2023-04-09T05:16:51;96882.63;;;2.41;100.00
62510;BME280;48558;48.242;11.654;2023-04-09T05:21:04;96888.84;;;2.45;100.00
62510;BME280;48558;48.242;11.654;2023-04-09T05:25:17;96904.41;;;2.55;100.00
62510;BME280;48558;48.242;11.654;2023-04-09T05:29:29;96895.03;;;2.60;100.00
62510;BME280;48558;48.242;11.654;2023-04-09T05:33:42;96901.28;;;2.57;100.00
62510;BME280;48558;48.242;11.654;2023-04-09T05:37:54;96891.19;;;2.50;100.00
62510;BME280;48558;48.242;11.654;2023-04-09T05:42:07;96901.25;;;2.60;100.00
62510;BME280;48558;48.242;11.654;2023-04-09T05:46:29;96887.97;;;2.69;100.00
62510;BME280;48558;48.242;11.654;2023-04-09T05:50:48;96891.38;;;2.91;100.00
62510;BME280;48558;48.242;11.654;2023-04-09T05:55:05;96893.53;;;3.21;100.00
62510;BME280;48558;48.242;11.654;2023-04-09T05:59:19;96891.34;;;3.53;100.00
62510;BME280;48558;48.242;11.654;2023-04-09T06:03:31;96908.06;;;3.62;100.00
62510;BME280;48558;48.242;11.654;2023-04-09T06:07:44;96916.88;;;3.84;100.00
62510;BME280;48558;48.242;11.654;2023-04-09T06:11:56;96915.22;;;3.93;100.00
62510;BME280;48558;48.242;11.654;2023-04-09T06:16:09;96912.81;;;4.02;100.00
62510;BME280;48558;48.242;11.654;2023-04-09T06:20:22;96916.78;;;4.35;100.00
62510;BME280;48558;48.242;11.654;2023-04-09T06:24:34;96910.50;;;4.72;100.00
62510;BME280;48558;48.242;11.654;2023-04-09T06:28:47;96894.75;;;4.46;100.00
62510;BME280;48558;48.242;11.654;2023-04-09T06:32:59;96920.31;;;4.99;100.00
62510;BME280;48558;48.242;11.654;2023-04-09T06:37:12;96920.91;;;5.14;100.00
62510;BME280;48558;48.242;11.654;2023-04-09T06:41:24;96920.19;;;5.37;100.00
62510;BME280;48558;48.242;11.654;2023-04-09T06:45:40;96908.28;;;5.20;100.00
62510;BME280;48558;48.242;11.654;2023-04-09T06:49:53;96913.56;;;5.61;100.00
62510;BME280;48558;48.242;11.654;2023-04-09T06:54:06;96916.00;;;5.55;100.00
62510;BME280;48558;48.242;11.654;2023-04-09T06:58:19;96907.06;;;5.74;100.00
62510;BME280;48558;48.242;11.654;2023-04-09T07:02:32;96915.69;;;6.00;100.00
62510;BME280;48558;48.242;11.654;2023-04-09T07:06:45;96914.56;;;6.20;100.00
62510;BME280;48558;48.242;11.654;2023-04-09T07:10:58;96910.75;;;6.14;100.00
62510;BME280;48558;48.242;11.654;2023-04-09T07:15:11;96913.19;;;6.32;100.00
62510;BME280;48558;48.242;11.654;2023-04-09T07:19:24;96907.44;;;6.46;100.00
62510;BME280;48558;48.242;11.654;2023-04-09T07:23:40;96914.28;;;6.58;100.00
62510;BME280;48558;48.242;11.654;2023-04-09T07:27:53;96906.66;;;6.65;100.00
62510;BME280;48558;48.242;11.654;2023-04-09T07:32:06;96913.53;;;7.12;100.00
62510;BME280;48558;48.242;11.654;2023-04-09T07:36:18;96908.50;;;7.63;100.00
62510;BME280;48558;48.242;11.654;2023-04-09T07:40:33;96917.78;;;7.69;100.00
62510;BME280;48558;48.242;11.654;2023-04-09T07:44:45;96909.19;;;7.99;100.00
62510;BME280;48558;48.242;11.654;2023-04-09T07:48:58;96912.03;;;8.12;100.00
62510;BME280;48558;48.242;11.654;2023-04-09T07:53:11;96911.25;;;8.43;100.00
62510;BME280;48558;48.242;11.654;2023-04-09T07:57:24;96915.97;;;8.43;100.00
62510;BME280;48558;48.242;11.654;2023-04-09T08:01:37;96918.19;;;8.77;100.00
62510;BME280;48558;48.242;11.654;2023-04-09T08:05:50;96915.66;;;8.53;100.00
62510;BME280;48558;48.242;11.654;2023-04-09T08:10:03;96925.38;;;8.58;100.00
62510;BME280;48558;48.242;11.654;2023-04-09T08:14:24;96924.50;;;8.77;100.00
62510;BME280;48558;48.242;11.654;2023-04-09T08:18:36;96928.59;;;8.56;100.00
62510;BME280;48558;48.242;11.654;2023-04-09T08:22:49;96922.09;;;8.63;100.00
62510;BME280;48558;48.242;11.654;2023-04-09T08:27:01;96932.28;;;9.07;100.00
62510;BME280;48558;48.242;11.654;2023-04-09T08:31:14;96934.88;;;9.52;100.00
62510;BME280;48558;48.242;11.654;2023-04-09T08:35:29;96942.28;;;10.05;100.00
62510;BME280;48558;48.242;11.654;2023-04-09T08:39:52;96942.72;;;10.29;100.00
62510;BME280;48558;48.242;11.654;2023-04-09T08:44:04;96944.50;;;9.85;100.00
62510;BME280;48558;48.242;11.654;2023-04-09T08:48:27;96955.97;;;9.46;100.00
62510;BME280;48558;48.242;11.654;2023-04-09T08:52:41;96954.66;;;9.76;100.00
62510;BME280;48558;48.242;11.654;2023-04-09T08:56:54;96953.16;;;10.59;100.00
62510;BME280;48558;48.242;11.654;2023-04-09T09:05:41;96939.03;;;11.22;94.63
62510;BME280;48558;48.242;11.654;2023-04-09T09:09:59;96939.72;;;10.70;100.00
62510;BME280;48558;48.242;11.654;2023-04-09T09:14:25;96940.78;;;12.30;93.79
62510;BME280;48558;48.242;11.654;2023-04-09T09:18:47;96953.44;;;12.49;92.62
62510;BME280;48558;48.242;11.654;2023-04-09T09:23:02;96961.06;;;12.18;94.43
62510;BME280;48558;48.242;11.654;2023-04-09T09:27:36;96947.31;;;12.05;83.71
62510;BME280;48558;48.242;11.654;2023-04-09T09:31:53;96943.78;;;11.22;88.05
62510;BME280;48558;48.242;11.654;2023-04-09T09:36:06;96946.16;;;11.54;91.26
62510;BME280;48558;48.242;11.654;2023-04-09T09:40:26;96937.47;;;13.08;80.10
62510;BME280;48558;48.242;11.654;2023-04-09T09:44:40;96944.25;;;12.79;72.33
62510;BME280;48558;48.242;11.654;2023-04-09T09:48:53;96959.59;;;12.44;80.19
62510;BME280;48558;48.242;11.654;2023-04-09T09:53:07;96950.91;;;13.09;76.41
62510;BME280;48558;48.242;11.654;2023-04-09T09:57:23;96946.34;;;12.39;81.71
62510;BME280;48558;48.242;11.654;2023-04-09T10:01:38;96944.69;;;13.23;77.41
62510;BME280;48558;48.242;11.654;2023-04-09T10:05:52;96952.69;;;12.00;79.78
62510;BME280;48558;48.242;11.654;2023-04-09T10:10:06;96954.50;;;12.43;86.74
62510;BME280;48558;48.242;11.654;2023-04-09T10:14:20;96940.66;;;11.63;82.74
62510;BME280;48558;48.242;11.654;2023-04-09T10:18:33;96935.00;;;11.67;85.66
62510;BME280;48558;48.242;11.654;2023-04-09T10:22:48;96942.19;;;11.12;80.47
62510;BME280;48558;48.242;11.654;2023-04-09T10:27:10;96945.63;;;11.68;85.98
62510;BME280;48558;48.242;11.654;2023-04-09T10:31:54;96933.06;;;11.76;83.38
62510;BME280;48558;48.242;11.654;2023-04-09T10:36:17;96944.88;;;12.07;87.51
62510;BME280;48558;48.242;11.654;2023-04-09T10:40:31;96949.44;;;12.41;71.83
62510;BME280;48558;48.242;11.654;2023-04-09T10:44:43;96951.81;;;13.06;80.33
62510;BME280;48558;48.242;11.654;2023-04-09T10:49:08;96955.91;;;13.98;67.11
62510;BME280;48558;48.242;11.654;2023-04-09T10:53:25;96949.03;;;13.84;67.24
62510;BME280;48558;48.242;11.654;2023-04-09T10:57:37;96943.00;;;12.98;71.44
62510;BME280;48558;48.242;11.654;2023-04-09T11:01:53;96939.59;;;12.94;66.65
62510;BME280;48558;48.242;11.654;2023-04-09T11:06:07;96940.16;;;12.35;70.86
62510;BME280;48558;48.242;11.654;2023-04-09T11:10:22;96943.44;;;12.52;69.94
62510;BME280;48558;48.242;11.654;2023-04-09T11:14:34;96929.75;;;12.66;68.38
62510;BME280;48558;48.242;11.654;2023-04-09T11:18:47;96932.72;;;12.05;75.67
62510;BME280;48558;48.242;11.654;2023-04-09T11:23:00;96944.94;;;12.26;76.27
62510;BME280;48558;48.242;11.654;2023-04-09T11:27:12;96935.75;;;12.83;66.43
62510;BME280;48558;48.242;11.654;2023-04-09T11:31:28;96927.72;;;13.03;61.91
62510;BME280;48558;48.242;11.654;2023-04-09T11:35:41;96926.97;;;12.93;67.94
62510;BME280;48558;48.242;11.654;2023-04-09T11:39:53;96930.75;;;13.50;69.28
62510;BME280;48558;48.242;11.654;2023-04-09T11:44:08;96938.31;;;12.32;70.01
62510;BME280;48558;48.242;11.654;2023-04-09T11:48:22;96941.69;;;12.18;73.68
62510;BME280;48558;48.242;11.654;2023-04-09T11:52:36;96942.19;;;12.35;87.36
62510;BME280;48558;48.242;11.654;2023-04-09T11:56:48;96942.38;;;12.76;77.05
62510;BME280;48558;48.242;11.654;2023-04-09T12:01:07;96927.13;;;12.72;70.12
62510;BME280;48558;48.242;11.654;2023-04-09T12:05:33;96942.06;;;12.56;66.69
62510;BME280;48558;48.242;11.654;2023-04-09T12:09:47;96926.75;;;13.51;73.51
62510;BME280;48558;48.242;11.654;2023-04-09T12:14:04;96942.09;;;12.92;65.83
62510;BME280;48558;48.242;11.654;2023-04-09T12:18:16;96933.75;;;12.65;62.46
62510;BME280;48558;48.242;11.654;2023-04-09T12:22:29;96938.63;;;13.61;60.60
62510;BME280;48558;48.242;11.654;2023-04-09T12:26:43;96945.09;;;13.58;61.10
62510;BME280;48558;48.242;11.654;2023-04-09T12:31:10;96936.13;;;14.05;63.15
62510;BME280;48558;48.242;11.654;2023-04-09T12:35:23;96934.97;;;13.01;68.77
62510;BME280;48558;48.242;11.654;2023-04-09T12:39:35;96927.88;;;12.36;69.86
62510;BME280;48558;48.242;11.654;2023-04-09T12:43:48;96940.34;;;12.50;68.66
62510;BME280;48558;48.242;11.654;2023-04-09T12:48:01;96929.44;;;12.82;72.80
62510;BME280;48558;48.242;11.654;2023-04-09T12:52:14;96926.94;;;12.30;71.19
62510;BME280;48558;48.242;11.654;2023-04-09T12:56:27;96930.66;;;12.63;67.38
62510;BME280;48558;48.242;11.654;2023-04-09T13:00:41;96936.72;;;12.13;75.05
62510;BME280;48558;48.242;11.654;2023-04-09T13:04:54;96918.81;;;12.72;73.07
62510;BME280;48558;48.242;11.654;2023-04-09T13:09:09;96933.81;;;11.46;73.45
62510;BME280;48558;48.242;11.654;2023-04-09T13:13:22;96932.88;;;11.49;83.00
62510;BME280;48558;48.242;11.654;2023-04-09T13:17:34;96928.41;;;11.42;80.94
62510;BME280;48558;48.242;11.654;2023-04-09T13:21:47;96928.59;;;11.26;84.52
62510;BME280;48558;48.242;11.654;2023-04-09T13:25:59;96931.25;;;11.61;82.01
62510;BME280;48558;48.242;11.654;2023-04-09T13:30:12;96922.56;;;12.11;79.50
62510;BME280;48558;48.242;11.654;2023-04-09T13:34:25;96910.75;;;12.29;73.97
62510;BME280;48558;48.242;11.654;2023-04-09T13:38:37;96905.13;;;12.77;70.12
62510;BME280;48558;48.242;11.654;2023-04-09T13:42:50;96900.94;;;12.73;66.30
62510;BME280;48558;48.242;11.654;2023-04-09T13:47:02;96900.34;;;14.54;60.20
62510;BME280;48558;48.242;11.654;2023-04-09T13:51:15;96911.28;;;14.34;55.55
62510;BME280;48558;48.242;11.654;2023-04-09T13:55:27;96900.22;;;16.18;53.42
62510;BME280;48558;48.242;11.654;2023-04-09T13:59:41;96908.38;;;14.76;53.30
62510;BME280;48558;48.242;11.654;2023-04-09T14:03:55;96893.84;;;15.98;49.55
62510;BME280;48558;48.242;11.654;2023-04-09T14:08:08;96906.41;;;14.91;54.86
62510;BME280;48558;48.242;11.654;2023-04-09T14:12:30;96905.34;;;13.43;64.11
62510;BME280;48558;48.242;11.654;2023-04-09T14:16:42;96904.16;;;13.17;65.68
62510;BME280;48558;48.242;11.654;2023-04-09T14:20:57;96902.66;;;13.07;63.82
62510;BME280;48558;48.242;11.654;2023-04-09T14:25:10;96887.81;;;13.19;61.28
62510;BME280;48558;48.242;11.654;2023-04-09T14:29:29;96897.75;;;13.52;69.42
62510;BME280;48558;48.242;11.654;2023-04-09T14:33:41;96890.00;;;13.65;67.89
62510;BME280;48558;48.242;11.654;2023-04-09T14:37:54;96883.38;;;12.49;68.03
62510;BME280;48558;48.242;11.654;2023-04-09T14:42:07;96897.31;;;11.08;76.43
62510;BME280;48558;48.242;11.654;2023-04-09T14:46:19;96888.69;;;15.03;59.69
62510;BME280;48558;48.242;11.654;2023-04-09T14:50:33;96885.38;;;16.62;49.80
62510;BME280;48558;48.242;11.654;2023-04-09T14:54:47;96885.84;;;16.80;46.82
62510;BME280;48558;48.242;11.654;2023-04-09T14:59:09;96882.63;;;17.59;45.87
62510;BME280;48558;48.242;11.654;2023-04-09T15:03:22;96880.09;;;16.89;45.93
62510;BME280;48558;48.242;11.654;2023-04-09T15:07:35;96883.50;;;16.53;46.81
62510;BME280;48558;48.242;11.654;2023-04-09T15:11:47;96885.00;;;16.74;47.67
62510;BME280;48558;48.242;11.654;2023-04-09T15:16:00;96866.94;;;17.41;47.29
62510;BME280;48558;48.242;11.654;2023-04-09T15:20:13;96876.34;;;17.44;49.03
62510;BME280;48558;48.242;11.654;2023-04-09T15:24:25;96882.84;;;16.84;66.24
62510;BME280;48558;48.242;11.654;2023-04-09T15:28:38;96884.38;;;17.87;46.17
62510;BME280;48558;48.242;11.654;2023-04-09T15:32:50;96893.00;;;18.63;46.11
62510;BME280;48558;48.242;11.654;2023-04-09T15:37:03;96879.38;;;17.40;47.71
62510;BME280;48558;48.242;11.654;2023-04-09T15:41:16;96894.94;;;15.27;52.68
62510;BME280;48558;48.242;11.654;2023-04-09T15:45:29;96883.75;;;13.80;60.59
62510;BME280;48558;48.242;11.654;2023-04-09T15:49:41;96883.84;;;14.51;59.75
62510;BME280;48558;48.242;11.654;2023-04-09T15:53:54;96877.81;;;12.94;63.93
62510;BME280;48558;48.242;11.654;2023-04-09T15:58:07;96874.34;;;13.86;52.70
62510;BME280;48558;48.242;11.654;2023-04-09T16:02:29;96874.75;;;12.74;51.14
62510;BME280;48558;48.242;11.654;2023-04-09T16:06:42;96868.38;;;11.61;60.74
62510;BME280;48558;48.242;11.654;2023-04-09T16:10:54;96858.56;;;12.81;54.55
62510;BME280;48558;48.242;11.654;2023-04-09T16:15:07;96871.34;;;13.57;56.86
62510;BME280;48558;48.242;11.654;2023-04-09T16:19:20;96867.38;;;12.80;61.14
62510;BME280;48558;48.242;11.654;2023-04-09T16:23:43;96858.88;;;12.92;57.35
62510;BME280;48558;48.242;11.654;2023-04-09T16:27:55;96854.97;;;11.50;58.41
62510;BME280;48558;48.242;11.654;2023-04-09T16:32:08;96869.34;;;11.67;63.33
62510;BME280;48558;48.242;11.654;2023-04-09T16:36:20;96864.25;;;11.04;61.95
62510;BME280;48558;48.242;11.654;2023-04-09T16:40:43;96877.22;;;11.47;62.58
62510;BME280;48558;48.242;11.654;2023-04-09T16:44:55;96864.38;;;11.62;66.79
62510;BME280;48558;48.242;11.654;2023-04-09T16:49:08;96868.22;;;11.56;66.64
62510;BME280;48558;48.242;11.654;2023-04-09T16:53:20;96867.44;;;11.24;68.66
62510;BME280;48558;48.242;11.654;2023-04-09T16:57:43;96866.47;;;11.49;64.35
62510;BME280;48558;48.242;11.654;2023-04-09T17:01:55;96866.03;;;11.90;64.17
62510;BME280;48558;48.242;11.654;2023-04-09T17:06:08;96877.28;;;11.96;60.89
62510;BME280;48558;48.242;11.654;2023-04-09T17:10:21;96870.56;;;11.66;64.59
62510;BME280;48558;48.242;11.654;2023-04-09T17:14:43;96872.22;;;10.59;73.94
62510;BME280;48558;48.242;11.654;2023-04-09T17:18:56;96861.22;;;10.12;76.09
62510;BME280;48558;48.242;11.654;2023-04-09T17:23:08;96873.31;;;9.80;81.14
62510;BME280;48558;48.242;11.654;2023-04-09T17:27:21;96884.16;;;8.96;90.29
62510;BME280;48558;48.242;11.654;2023-04-09T17:31:33;96888.81;;;8.86;92.98
62510;BME280;48558;48.242;11.654;2023-04-09T17:35:51;96889.72;;;8.38;100.00
62510;BME280;48558;48.242;11.654;2023-04-09T17:40:04;96888.88;;;8.25;100.00
62510;BME280;48558;48.242;11.654;2023-04-09T17:44:18;96899.56;;;8.07;100.00
62510;BME280;48558;48.242;11.654;2023-04-09T17:48:30;96889.00;;;7.73;100.00
62510;BME280;48558;48.242;11.654;2023-04-09T17:52:43;96897.81;;;7.33;100.00
62510;BME280;48558;48.242;11.654;2023-04-09T17:56:55;96895.28;;;7.22;100.00
62510;BME280;48558;48.242;11.654;2023-04-09T18:01:18;96893.56;;;6.92;100.00
62510;BME280;48558;48.242;11.654;2023-04-09T18:05:37;96893.34;;;6.64;100.00
62510;BME280;48558;48.242;11.654;2023-04-09T18:09:50;96897.72;;;6.41;100.00
62510;BME280;48558;48.242;11.654;2023-04-09T18:14:02;96880.84;;;6.20;100.00
62510;BME280;48558;48.242;11.654;2023-04-09T18:18:18;96910.31;;;6.16;100.00
62510;BME280;48558;48.242;11.654;2023-04-09T18:22:31;96905.00;;;5.82;100.00
62510;BME280;48558;48.242;11.654;2023-04-09T18:26:44;96915.94;;;5.59;100.00
62510;BME280;48558;48.242;11.654;2023-04-09T18:30:57;96921.59;;;5.48;100.00
62510;BME280;48558;48.242;11.654;2023-04-09T18:35:20;96932.09;;;5.27;100.00
62510;BME280;48558;48.242;11.654;2023-04-09T18:39:41;96918.25;;;5.07;100.00
62510;BME280;48558;48.242;11.654;2023-04-09T18:43:53;96942.97;;;5.03;100.00
62510;BME280;48558;48.242;11.654;2023-04-09T18:48:06;96926.56;;;5.00;100.00
62510;BME280;48558;48.242;11.654;2023-04-09T18:52:20;96948.78;;;5.05;100.00
62510;BME280;48558;48.242;11.654;2023-04-09T18:56:33;96943.19;;;4.86;100.00
62510;BME280;48558;48.242;11.654;2023-04-09T19:00:51;96945.81;;;4.59;100.00
62510;BME280;48558;48.242;11.654;2023-04-09T19:05:04;96952.38;;;4.69;100.00
62510;BME280;48558;48.242;11.654;2023-04-09T19:09:28;96941.75;;;4.37;100.00
62510;BME280;48558;48.242;11.654;2023-04-09T19:13:40;96955.13;;;4.31;100.00
62510;BME280;48558;48.242;11.654;2023-04-09T19:17:53;96959.50;;;4.18;100.00
62510;BME280;48558;48.242;11.654;2023-04-09T19:22:06;96954.81;;;4.19;100.00
62510;BME280;48558;48.242;11.654;2023-04-09T19:26:19;96955.66;;;4.12;100.00
62510;BME280;48558;48.242;11.654;2023-04-09T19:30:33;96942.41;;;4.11;100.00
62510;BME280;48558;48.242;11.654;2023-04-09T19:34:45;96949.22;;;3.92;100.00
62510;BME280;48558;48.242;11.654;2023-04-09T19:38:58;96938.88;;;3.66;100.00
62510;BME280;48558;48.242;11.654;2023-04-09T19:43:13;96945.88;;;3.71;100.00
62510;BME280;48558;48.242;11.654;2023-04-09T19:47:26;96962.66;;;3.73;100.00
62510;BME280;48558;48.242;11.654;2023-04-09T19:51:39;96961.03;;;3.79;100.00
62510;BME280;48558;48.242;11.654;2023-04-09T19:55:51;96965.47;;;3.58;100.00
62510;BME280;48558;48.242;11.654;2023-04-09T20:00:05;96963.03;;;3.71;100.00
62510;BME280;48558;48.242;11.654;2023-04-09T20:04:18;96957.69;;;3.57;100.00
62510;BME280;48558;48.242;11.654;2023-04-09T20:08:31;96955.38;;;3.52;100.00
62510;BME280;48558;48.242;11.654;2023-04-09T20:12:48;96964.78;;;3.44;100.00
62510;BME280;48558;48.242;11.654;2023-04-09T20:17:01;96970.28;;;3.40;100.00
62510;BME280;48558;48.242;11.654;2023-04-09T20:21:13;96965.97;;;3.39;100.00
62510;BME280;48558;48.242;11.654;2023-04-09T20:25:27;96951.59;;;3.28;100.00
62510;BME280;48558;48.242;11.654;2023-04-09T20:29:45;96949.75;;;3.08;100.00
62510;BME280;48558;48.242;11.654;2023-04-09T20:33:57;96949.41;;;2.99;100.00
62510;BME280;48558;48.242;11.654;2023-04-09T20:38:10;96959.59;;;2.95;100.00
62510;BME280;48558;48.242;11.654;2023-04-09T20:42:25;96955.75;;;2.81;100.00
62510;BME280;48558;48.242;11.654;2023-04-09T20:46:38;96956.53;;;2.78;100.00
62510;BME280;48558;48.242;11.654;2023-04-09T20:51:01;96958.50;;;2.78;100.00
62510;BME280;48558;48.242;11.654;2023-04-09T20:55:15;96965.16;;;2.73;100.00
62510;BME280;48558;48.242;11.654;2023-04-09T20:59:27;96950.75;;;2.62;100.00
62510;BME280;48558;48.242;11.654;2023-04-09T21:03:40;96951.13;;;2.61;100.00
62510;BME280;48558;48.242;11.654;2023-04-09T21:07:53;96949.22;;;2.58;100.00
62510;BME280;48558;48.242;11.654;2023-04-09T21:12:09;96960.94;;;2.48;100.00
62510;BME280;48558;48.242;11.654;2023-04-09T21:16:22;96964.06;;;2.43;100.00
62510;BME280;48558;48.242;11.654;2023-04-09T21:20:35;96968.34;;;2.37;100.00
62510;BME280;48558;48.242;11.654;2023-04-09T21:24:54;96971.47;;;2.32;100.00
62510;BME280;48558;48.242;11.654;2023-04-09T21:29:07;96978.13;;;2.20;100.00
62510;BME280;48558;48.242;11.654;2023-04-09T21:33:19;96975.38;;;2.13;100.00
62510;BME280;48558;48.242;11.654;2023-04-09T21:37:32;96971.53;;;2.03;100.00
62510;BME280;48558;48.242;11.654;2023-04-09T21:41:45;96961.38;;;1.97;100.00
62510;BME280;48558;48.242;11.654;2023-04-09T21:45:58;96974.63;;;1.95;100.00
62510;BME280;48558;48.242;11.654;2023-04-09T21:50:10;96980.09;;;1.91;100.00
62510;BME280;48558;48.242;11.654;2023-04-09T21:54:23;96955.97;;;1.83;100.00
62510;BME280;48558;48.242;11.654;2023-04-09T21:58:42;96980.88;;;1.95;100.00
62510;BME280;48558;48.242;11.654;2023-04-09T22:03:02;96984.75;;;1.84;100.00
62510;BME280;48558;48.242;11.654;2023-04-09T22:07:14;96976.97;;;1.89;100.00
62510;BME280;48558;48.242;11.654;2023-04-09T22:11:27;96978.91;;;1.89;100.00
62510;BME280;48558;48.242;11.654;2023-04-09T22:15:39;96994.13;;;1.90;100.00
62510;BME280;48558;48.242;11.654;2023-04-09T22:19:52;96983.22;;;1.83;100.00